Time;durP1;ratioP1;P1;durP2;ratioP2;P2;SDS_P1;SDS_P2;PMS_P1;PMS_P2;Temp;Humidity;BMP_temperature;BMP_pressure;BME280_temperature;BME280_humidity;BME280_pressure;Samples;Min_cycle;Max_cycle;Signal;HPM_P1;HPM_P2
2022/01/12 00:01:47;;;;;;;6.23;3.93;;;;;;;;;;5059167;28;20535;-69
2022/01/12 00:04:15;;;;;;;9.80;6.07;;;;;;;;;;5071042;28;20548;-69
2022/01/12 00:06:42;;;;;;;6.90;4.53;;;;;;;;;;5072159;28;20528;-69
2022/01/12 00:09:09;;;;;;;5.47;4.70;;;;;;;;;;5071765;28;20477;-69
2022/01/12 00:11:38;;;;;;;7.10;4.70;;;;;;;;;;5078901;28;20504;-69
2022/01/12 00:14:05;;;;;;;6.33;4.00;;;;;;;;;;5082628;28;20545;-69
2022/01/12 00:16:32;;;;;;;8.13;5.00;;;;;;;;;;5079576;28;20526;-69
2022/01/12 00:19:00;;;;;;;7.93;5.03;;;;;;;;;;5071839;28;20479;-69
2022/01/12 00:21:27;;;;;;;7.13;5.03;;;;;;;;;;5071413;28;20461;-69
2022/01/12 00:23:54;;;;;;;5.73;4.13;;;;;;;;;;5071833;28;20453;-69
2022/01/12 00:26:39;;;;;;;7.63;5.57;;;;;;;;;;5070877;28;20452;-69
2022/01/12 00:34:37;;;;;;;5.40;4.37;;;;;;;;;;5071042;28;20421;-69
2022/01/12 00:37:04;;;;;;;6.70;4.90;;;;;;;;;;5071015;28;20453;-69
2022/01/12 00:39:31;;;;;;;6.83;6.10;;;;;;;;;;5071288;28;20452;-69
2022/01/12 00:41:58;;;;;;;6.60;4.67;;;;;;;;;;5071689;28;20459;-69
2022/01/12 00:44:33;;;;;;;6.90;4.60;;;;;;;;;;5070322;28;20548;-69
2022/01/12 00:47:01;;;;;;;7.60;4.67;;;;;;;;;;5071123;28;20980;-69
2022/01/12 00:49:28;;;;;;;7.30;5.10;;;;;;;;;;5070800;28;20467;-69
2022/01/12 00:51:55;;;;;;;6.57;4.00;;;;;;;;;;5070785;28;20596;-69
2022/01/12 00:54:23;;;;;;;6.40;4.10;;;;;;;;;;5070464;28;20452;-70
2022/01/12 00:56:50;;;;;;;7.20;4.20;;;;;;;;;;5071273;28;20479;-69
2022/01/12 00:59:17;;;;;;;5.77;4.30;;;;;;;;;;5070622;28;20802;-69
2022/01/12 01:01:45;;;;;;;6.77;4.57;;;;;;;;;;5070850;28;21025;-70
2022/01/12 01:04:13;;;;;;;4.90;3.90;;;;;;;;;;5070048;28;20547;-69
2022/01/12 01:06:40;;;;;;;5.77;4.27;;;;;;;;;;5058288;28;20449;-69
2022/01/12 01:09:07;;;;;;;8.07;5.20;;;;;;;;;;5070296;28;20532;-69
2022/01/12 01:11:34;;;;;;;5.20;4.00;;;;;;;;;;5071185;28;20489;-69
2022/01/12 01:14:11;;;;;;;6.03;4.53;;;;;;;;;;5070586;28;20470;-69
2022/01/12 01:16:50;;;;;;;4.27;3.87;;;;;;;;;;5071137;28;20487;-69
2022/01/12 01:27:33;;;;;;;6.17;4.63;;;;;;;;;;5070922;28;20426;-69
2022/01/12 01:30:00;;;;;;;6.97;4.40;;;;;;;;;;5070915;28;20547;-69
2022/01/12 01:32:28;;;;;;;6.40;4.77;;;;;;;;;;5070215;28;20545;-69
2022/01/12 01:34:56;;;;;;;4.50;3.70;;;;;;;;;;5070575;28;20496;-69
2022/01/12 01:37:23;;;;;;;5.23;4.03;;;;;;;;;;5069961;28;20924;-69
2022/01/12 01:39:50;;;;;;;4.30;3.90;;;;;;;;;;5072402;28;20449;-69
2022/01/12 01:42:22;;;;;;;4.60;3.73;;;;;;;;;;5074021;28;20495;-68
2022/01/12 01:53:21;;;;;;;6.33;4.77;;;;;;;;;;5031348;28;20470;-69
2022/01/12 01:55:49;;;;;;;14.30;5.30;;;;;;;;;;5031901;28;20457;-69
2022/01/12 01:58:16;;;;;;;5.90;4.53;;;;;;;;;;5050293;28;20943;-69
2022/01/12 02:00:43;;;;;;;6.10;4.30;;;;;;;;;;5074123;28;20456;-69
2022/01/12 02:03:10;;;;;;;8.07;4.33;;;;;;;;;;5073356;28;20448;-69
2022/01/12 02:05:40;;;;;;;7.63;5.20;;;;;;;;;;5074080;28;20471;-69
2022/01/12 02:08:08;;;;;;;9.57;5.37;;;;;;;;;;5073774;28;20458;-69
2022/01/12 02:10:35;;;;;;;6.10;3.80;;;;;;;;;;5074297;28;20542;-69
2022/01/12 02:13:03;;;;;;;7.67;4.77;;;;;;;;;;5074282;28;20451;-69
2022/01/12 02:15:30;;;;;;;6.93;5.77;;;;;;;;;;5073877;28;20479;-69
2022/01/12 02:18:14;;;;;;;5.13;3.63;;;;;;;;;;5074005;28;20442;-69
2022/01/12 02:40:11;;;;;;;7.40;4.70;;;;;;;;;;5073054;28;20918;-69
2022/01/12 02:42:43;;;;;;;9.50;4.23;;;;;;;;;;5073899;28;20500;-69
2022/01/12 02:50:46;;;;;;;6.57;4.03;;;;;;;;;;5061381;28;20463;-68
2022/01/12 02:56:00;;;;;;;7.17;5.10;;;;;;;;;;5082288;28;20423;-69
2022/01/12 02:58:27;;;;;;;7.10;5.10;;;;;;;;;;5084985;28;20478;-70
2022/01/12 03:01:15;;;;;;;9.50;4.93;;;;;;;;;;5075452;28;20453;-68
2022/01/12 03:03:45;;;;;;;7.70;5.00;;;;;;;;;;5073419;28;20451;-68
2022/01/12 03:06:17;;;;;;;8.13;4.77;;;;;;;;;;5072613;28;20546;-69
2022/01/12 03:08:45;;;;;;;6.20;4.73;;;;;;;;;;5073027;28;20484;-68
2022/01/12 03:11:14;;;;;;;5.63;4.60;;;;;;;;;;5072513;28;20496;-68
2022/01/12 03:13:41;;;;;;;6.73;4.87;;;;;;;;;;5073166;28;20802;-69
2022/01/12 03:16:13;;;;;;;8.47;5.00;;;;;;;;;;5071871;28;20539;-69
2022/01/12 03:18:41;;;;;;;6.60;4.70;;;;;;;;;;5072808;28;20479;-69
2022/01/12 03:21:08;;;;;;;8.60;5.17;;;;;;;;;;5071985;28;20966;-68
2022/01/12 03:23:35;;;;;;;5.43;4.40;;;;;;;;;;5073005;28;20478;-69
2022/01/12 03:26:04;;;;;;;5.80;4.50;;;;;;;;;;5072597;28;20451;-68
2022/01/12 03:28:32;;;;;;;7.87;5.13;;;;;;;;;;5072826;28;20446;-69
2022/01/12 03:31:09;;;;;;;5.00;4.00;;;;;;;;;;5072563;28;20784;-69
2022/01/12 03:33:51;;;;;;;8.33;4.10;;;;;;;;;;5072741;28;20442;-68
2022/01/12 03:36:42;;;;;;;8.40;5.57;;;;;;;;;;5071949;28;20464;-68
2022/01/12 03:39:11;;;;;;;6.13;4.37;;;;;;;;;;5071960;28;20451;-69
2022/01/12 03:41:40;;;;;;;6.13;4.13;;;;;;;;;;5072344;28;20458;-69
2022/01/12 03:44:08;;;;;;;6.30;4.47;;;;;;;;;;5071494;28;20463;-68
2022/01/12 03:46:38;;;;;;;6.77;4.50;;;;;;;;;;5072307;28;20444;-68
2022/01/12 03:49:06;;;;;;;8.70;5.40;;;;;;;;;;5071940;28;20544;-69
2022/01/12 03:51:33;;;;;;;7.13;4.77;;;;;;;;;;5072164;28;20866;-69
2022/01/12 03:54:01;;;;;;;7.03;4.40;;;;;;;;;;5071686;28;20447;-69
2022/01/12 03:56:28;;;;;;;7.30;5.03;;;;;;;;;;5071531;28;20457;-69
2022/01/12 03:58:56;;;;;;;7.37;4.73;;;;;;;;;;5072107;28;20888;-68
2022/01/12 04:01:23;;;;;;;6.17;4.77;;;;;;;;;;5071279;28;20933;-68
2022/01/12 04:03:59;;;;;;;7.10;4.33;;;;;;;;;;5071371;28;21003;-68
2022/01/12 04:09:12;;;;;;;9.80;5.00;;;;;;;;;;5071318;28;20912;-68
2022/01/12 04:11:39;;;;;;;6.37;4.67;;;;;;;;;;5071935;28;20809;-68
2022/01/12 04:14:07;;;;;;;9.43;5.80;;;;;;;;;;5070494;28;20476;-68
2022/01/12 04:16:35;;;;;;;7.40;5.10;;;;;;;;;;5071918;28;20854;-68
2022/01/12 04:19:02;;;;;;;7.20;5.00;;;;;;;;;;5071593;28;20542;-68
2022/01/12 04:21:31;;;;;;;7.57;5.27;;;;;;;;;;5071799;28;20465;-68
2022/01/12 04:23:58;;;;;;;8.87;5.20;;;;;;;;;;5071122;28;20515;-68
2022/01/12 04:26:25;;;;;;;8.03;5.20;;;;;;;;;;5071196;28;20446;-68
2022/01/12 04:28:53;;;;;;;8.80;5.83;;;;;;;;;;5071118;28;20957;-68
2022/01/12 04:31:22;;;;;;;7.60;6.17;;;;;;;;;;5070910;28;20440;-69
2022/01/12 04:33:50;;;;;;;6.77;5.10;;;;;;;;;;5071068;28;20460;-68
2022/01/12 04:36:17;;;;;;;8.00;5.20;;;;;;;;;;5071060;28;20456;-68
2022/01/12 04:38:45;;;;;;;9.57;6.80;;;;;;;;;;5071174;28;20447;-69
2022/01/12 04:41:13;;;;;;;8.00;5.87;;;;;;;;;;5070675;28;20450;-68
2022/01/12 04:43:41;;;;;;;6.83;5.43;;;;;;;;;;5070845;28;20480;-68
2022/01/12 04:46:25;;;;;;;7.27;4.33;;;;;;;;;;5070644;28;20940;-68
2022/01/12 04:49:07;;;;;;;7.70;5.63;;;;;;;;;;5071676;28;20450;-68
2022/01/12 04:51:34;;;;;;;8.43;6.10;;;;;;;;;;5070889;28;20846;-68
2022/01/12 04:54:02;;;;;;;7.60;5.37;;;;;;;;;;5071258;28;20447;-68
2022/01/12 04:56:30;;;;;;;8.70;6.30;;;;;;;;;;5071183;28;20489;-68
2022/01/12 04:58:57;;;;;;;8.03;5.70;;;;;;;;;;5070753;28;20464;-68
2022/01/12 05:01:27;;;;;;;7.37;5.83;;;;;;;;;;5070490;28;20453;-69
2022/01/12 05:06:55;;;;;;;9.70;6.10;;;;;;;;;;5071120;28;20424;-68
2022/01/12 05:09:50;;;;;;;10.10;6.83;;;;;;;;;;5070681;28;20445;-69
2022/01/12 05:15:11;;;;;;;11.90;6.07;;;;;;;;;;5074275;28;20432;-68
2022/01/12 05:17:39;;;;;;;10.20;7.00;;;;;;;;;;5076415;28;20859;-69
2022/01/12 05:20:08;;;;;;;8.03;6.20;;;;;;;;;;5077936;28;20556;-68
2022/01/12 05:22:35;;;;;;;10.00;6.97;;;;;;;;;;5077824;28;21030;-68
2022/01/12 05:25:02;;;;;;;9.30;5.80;;;;;;;;;;5077454;28;20458;-68
2022/01/12 05:27:29;;;;;;;7.10;6.17;;;;;;;;;;5077890;28;20444;-68
2022/01/12 05:29:57;;;;;;;10.40;6.47;;;;;;;;;;5077306;28;20481;-68
2022/01/12 05:32:26;;;;;;;9.30;6.40;;;;;;;;;;5076677;28;20488;-68
2022/01/12 05:34:57;;;;;;;8.87;6.30;;;;;;;;;;5077365;28;20453;-68
2022/01/12 05:37:26;;;;;;;9.20;6.57;;;;;;;;;;5072366;28;20449;-69
2022/01/12 05:39:53;;;;;;;11.20;6.80;;;;;;;;;;5086171;28;20512;-68
2022/01/12 05:42:20;;;;;;;8.93;6.60;;;;;;;;;;5080899;28;20460;-68
2022/01/12 05:44:47;;;;;;;8.77;6.13;;;;;;;;;;5077356;28;20453;-71
2022/01/12 05:47:32;;;;;;;9.73;6.70;;;;;;;;;;5077427;28;20511;-68
2022/01/12 05:49:58;;;;;;;6.40;5.47;;;;;;;;;;5077802;28;20474;-68
2022/01/12 05:52:26;;;;;;;8.10;5.60;;;;;;;;;;5076706;28;20972;-68
2022/01/12 05:54:54;;;;;;;12.50;6.20;;;;;;;;;;5077052;28;20451;-69
2022/01/12 05:57:21;;;;;;;9.20;6.07;;;;;;;;;;5076960;28;20543;-68
2022/01/12 05:59:48;;;;;;;10.67;6.87;;;;;;;;;;5077086;28;20444;-68
2022/01/12 06:02:15;;;;;;;9.20;6.60;;;;;;;;;;5076902;28;20968;-68
2022/01/12 06:04:43;;;;;;;8.20;5.80;;;;;;;;;;5076697;28;20452;-68
2022/01/12 06:07:10;;;;;;;10.27;6.83;;;;;;;;;;5075633;28;20452;-69
2022/01/12 06:09:39;;;;;;;12.17;6.43;;;;;;;;;;5077052;28;20556;-68
2022/01/12 06:12:06;;;;;;;10.17;7.20;;;;;;;;;;5076495;28;20487;-68
2022/01/12 06:14:33;;;;;;;10.10;7.17;;;;;;;;;;5077240;28;20476;-69
2022/01/12 06:17:01;;;;;;;7.77;6.03;;;;;;;;;;5076962;28;20445;-69
2022/01/12 06:19:28;;;;;;;12.33;7.70;;;;;;;;;;5076682;28;20441;-68
2022/01/12 06:21:55;;;;;;;12.60;6.70;;;;;;;;;;5077103;28;20484;-68
2022/01/12 06:24:22;;;;;;;8.57;6.77;;;;;;;;;;5076422;28;20453;-68
2022/01/12 06:26:51;;;;;;;7.73;6.07;;;;;;;;;;5072825;28;20454;-68
2022/01/12 06:29:37;;;;;;;8.50;7.17;;;;;;;;;;5072830;28;20963;-68
2022/01/12 06:32:05;;;;;;;9.60;7.00;;;;;;;;;;5073250;28;20453;-68
2022/01/12 06:34:32;;;;;;;12.50;7.60;;;;;;;;;;5073763;28;20934;-68
2022/01/12 06:36:59;;;;;;;16.70;8.70;;;;;;;;;;5073485;28;20560;-68
2022/01/12 06:39:27;;;;;;;16.00;7.87;;;;;;;;;;5073330;28;20448;-68
2022/01/12 06:41:56;;;;;;;16.43;9.33;;;;;;;;;;5073411;28;20679;-68
2022/01/12 06:44:25;;;;;;;13.30;8.77;;;;;;;;;;5072767;28;20445;-68
2022/01/12 06:46:53;;;;;;;14.50;9.57;;;;;;;;;;5073010;28;20468;-68
2022/01/12 06:49:20;;;;;;;11.57;8.90;;;;;;;;;;5073086;28;20446;-68
2022/01/12 06:51:47;;;;;;;12.30;8.73;;;;;;;;;;5073359;28;20572;-68
2022/01/12 06:54:16;;;;;;;11.87;8.07;;;;;;;;;;5072870;28;20495;-68
2022/01/12 06:56:43;;;;;;;13.40;9.47;;;;;;;;;;5072752;28;20477;-68
2022/01/12 06:59:11;;;;;;;11.73;8.90;;;;;;;;;;5072892;28;20443;-68
2022/01/12 07:01:39;;;;;;;15.13;9.50;;;;;;;;;;5073123;28;20453;-68
2022/01/12 07:04:06;;;;;;;14.00;7.90;;;;;;;;;;5072836;28;20491;-69
2022/01/12 07:06:34;;;;;;;10.40;8.03;;;;;;;;;;5072927;28;20494;-68
2022/01/12 07:09:01;;;;;;;11.67;7.80;;;;;;;;;;5073539;28;20484;-68
2022/01/12 07:11:28;;;;;;;12.03;7.80;;;;;;;;;;5072212;28;20456;-68
2022/01/12 07:13:55;;;;;;;16.30;10.57;;;;;;;;;;5073182;28;20477;-67
2022/01/12 07:16:24;;;;;;;17.23;10.13;;;;;;;;;;5072135;28;20452;-68
2022/01/12 07:18:51;;;;;;;13.37;9.47;;;;;;;;;;5073040;28;20450;-68
2022/01/12 07:21:18;;;;;;;14.30;10.07;;;;;;;;;;5059102;28;20465;-68
2022/01/12 07:23:45;;;;;;;10.73;8.33;;;;;;;;;;5072568;28;20888;-67
2022/01/12 07:26:13;;;;;;;11.53;8.90;;;;;;;;;;5071986;28;20445;-68
2022/01/12 07:28:40;;;;;;;15.00;10.70;;;;;;;;;;5072787;28;20453;-68
2022/01/12 07:31:07;;;;;;;15.53;10.20;;;;;;;;;;5071847;28;20927;-68
2022/01/12 07:33:35;;;;;;;12.50;9.50;;;;;;;;;;5072724;28;20525;-68
2022/01/12 07:36:03;;;;;;;12.40;8.33;;;;;;;;;;5072207;28;21076;-68
2022/01/12 07:38:30;;;;;;;12.53;9.60;;;;;;;;;;5072112;28;20537;-68
2022/01/12 07:40:57;;;;;;;15.87;10.57;;;;;;;;;;5072842;28;20476;-68
2022/01/12 07:43:24;;;;;;;12.40;10.10;;;;;;;;;;5072039;28;20509;-68
2022/01/12 07:45:52;;;;;;;14.87;9.57;;;;;;;;;;5072247;28;20888;-69
2022/01/12 07:48:19;;;;;;;16.47;11.17;;;;;;;;;;5071775;28;20548;-68
2022/01/12 07:50:47;;;;;;;13.80;9.47;;;;;;;;;;5072295;28;20889;-68
2022/01/12 07:53:14;;;;;;;15.47;10.33;;;;;;;;;;5071655;28;20570;-68
2022/01/12 07:55:42;;;;;;;18.70;12.07;;;;;;;;;;5071858;28;20443;-68
2022/01/12 07:58:09;;;;;;;15.00;10.67;;;;;;;;;;5071611;28;20438;-69
2022/01/12 08:00:36;;;;;;;16.17;10.97;;;;;;;;;;5071799;28;20454;-68
2022/01/12 08:03:03;;;;;;;16.43;10.27;;;;;;;;;;5072306;28;20473;-68
2022/01/12 08:05:30;;;;;;;18.40;12.00;;;;;;;;;;5071932;28;20459;-68
2022/01/12 08:07:59;;;;;;;14.83;11.07;;;;;;;;;;5071962;28;20776;-68
2022/01/12 08:10:26;;;;;;;16.37;11.20;;;;;;;;;;5071533;28;20887;-68
2022/01/12 08:12:54;;;;;;;15.07;10.33;;;;;;;;;;5071952;28;20786;-69
2022/01/12 08:15:21;;;;;;;15.90;9.57;;;;;;;;;;5071317;28;20484;-68
2022/01/12 08:17:48;;;;;;;16.10;10.53;;;;;;;;;;5072026;28;20459;-69
2022/01/12 08:20:18;;;;;;;11.90;9.50;;;;;;;;;;5072173;28;20945;-68
2022/01/12 08:22:45;;;;;;;15.53;11.17;;;;;;;;;;5073679;28;20467;-69
2022/01/12 08:25:14;;;;;;;16.30;11.00;;;;;;;;;;5074813;28;20457;-68
2022/01/12 08:27:41;;;;;;;15.07;10.07;;;;;;;;;;5071305;28;20451;-68
2022/01/12 08:30:16;;;;;;;12.00;10.77;;;;;;;;;;5071380;28;20449;-68
2022/01/12 08:32:43;;;;;;;17.33;11.00;;;;;;;;;;5072037;28;20452;-68
2022/01/12 08:35:10;;;;;;;16.27;9.70;;;;;;;;;;5071173;28;20524;-68
2022/01/12 08:37:37;;;;;;;16.67;11.30;;;;;;;;;;5070965;28;20450;-68
2022/01/12 08:40:05;;;;;;;17.97;10.77;;;;;;;;;;5071041;28;20510;-68
2022/01/12 08:42:34;;;;;;;14.73;10.67;;;;;;;;;;5071442;28;20537;-68
2022/01/12 08:45:02;;;;;;;15.43;10.20;;;;;;;;;;5071438;28;20442;-68
2022/01/12 08:47:29;;;;;;;14.40;11.43;;;;;;;;;;5071348;28;20519;-68
2022/01/12 08:49:57;;;;;;;13.43;10.27;;;;;;;;;;5070660;28;20448;-69
2022/01/12 08:52:24;;;;;;;16.67;10.93;;;;;;;;;;5070837;28;20909;-69
2022/01/12 08:54:51;;;;;;;11.90;10.27;;;;;;;;;;5070878;28;20487;-69
2022/01/12 08:57:18;;;;;;;13.90;9.93;;;;;;;;;;5070144;28;20465;-68
2022/01/12 08:59:47;;;;;;;15.53;10.57;;;;;;;;;;5071156;28;20765;-69
2022/01/12 09:02:15;;;;;;;12.97;9.47;;;;;;;;;;5070387;28;20533;-68
2022/01/12 09:04:42;;;;;;;14.80;10.03;;;;;;;;;;5071315;28;20457;-68
2022/01/12 09:07:09;;;;;;;15.77;9.97;;;;;;;;;;5070474;28;20884;-68
2022/01/12 09:09:37;;;;;;;11.60;10.20;;;;;;;;;;5071190;28;20455;-68
2022/01/12 09:12:04;;;;;;;12.17;8.77;;;;;;;;;;5071216;28;20532;-69
2022/01/12 09:14:32;;;;;;;15.07;11.00;;;;;;;;;;5070991;28;20572;-68
2022/01/12 09:17:00;;;;;;;14.63;9.87;;;;;;;;;;5070803;28;20537;-68
2022/01/12 09:19:28;;;;;;;14.60;10.37;;;;;;;;;;5070216;28;20445;-68
2022/01/12 09:21:56;;;;;;;16.10;9.40;;;;;;;;;;5071297;28;20465;-69
2022/01/12 09:24:24;;;;;;;11.13;9.57;;;;;;;;;;5070551;28;20449;-69
2022/01/12 09:26:51;;;;;;;11.70;9.90;;;;;;;;;;5070670;28;20473;-69
2022/01/12 09:29:19;;;;;;;14.43;9.90;;;;;;;;;;5070492;28;20532;-68
2022/01/12 09:31:46;;;;;;;12.23;10.90;;;;;;;;;;5070953;28;20874;-69
2022/01/12 09:34:14;;;;;;;14.47;10.73;;;;;;;;;;5070312;28;20503;-69
2022/01/12 09:36:41;;;;;;;15.60;11.27;;;;;;;;;;5070165;28;20533;-69
2022/01/12 09:39:09;;;;;;;12.70;10.13;;;;;;;;;;5070060;28;20485;-69
2022/01/12 09:41:36;;;;;;;15.30;10.67;;;;;;;;;;5070771;28;20880;-68
2022/01/12 09:44:04;;;;;;;12.60;8.87;;;;;;;;;;5070733;28;20536;-68
2022/01/12 09:46:31;;;;;;;12.87;8.50;;;;;;;;;;5070333;28;20500;-68
2022/01/12 09:49:00;;;;;;;10.23;8.70;;;;;;;;;;5070399;28;20457;-69
2022/01/12 09:51:29;;;;;;;12.77;9.30;;;;;;;;;;5069574;28;20956;-68
2022/01/12 09:53:58;;;;;;;12.40;10.93;;;;;;;;;;5070892;28;20473;-68
2022/01/12 09:56:26;;;;;;;13.13;9.90;;;;;;;;;;5069803;28;20457;-68
2022/01/12 09:58:54;;;;;;;15.00;9.90;;;;;;;;;;5070763;28;20533;-68
2022/01/12 10:01:24;;;;;;;11.57;8.10;;;;;;;;;;5071869;28;20490;-69
2022/01/12 10:03:51;;;;;;;12.97;7.97;;;;;;;;;;5074524;28;20453;-68
2022/01/12 10:06:18;;;;;;;12.20;8.80;;;;;;;;;;5073065;28;20542;-68
2022/01/12 10:08:47;;;;;;;10.83;7.70;;;;;;;;;;5074348;28;20449;-68
2022/01/12 10:11:15;;;;;;;12.10;9.57;;;;;;;;;;5073471;28;20481;-68
2022/01/12 10:13:42;;;;;;;11.07;7.17;;;;;;;;;;5074077;28;20483;-69
2022/01/12 10:16:13;;;;;;;12.97;9.40;;;;;;;;;;5072826;28;20457;-68
2022/01/12 10:18:47;;;;;;;11.70;7.93;;;;;;;;;;5073819;28;20454;-69
2022/01/12 10:21:25;;;;;;;9.97;7.07;;;;;;;;;;5073540;28;20491;-68
2022/01/12 10:23:57;;;;;;;16.23;8.80;;;;;;;;;;5074143;28;20780;-68
2022/01/12 10:26:33;;;;;;;11.27;8.80;;;;;;;;;;5072791;28;20532;-67
2022/01/12 10:29:05;;;;;;;14.13;9.43;;;;;;;;;;5073363;28;20433;-67
2022/01/12 10:31:42;;;;;;;13.20;7.53;;;;;;;;;;5073501;28;20800;-68
2022/01/12 10:34:10;;;;;;;10.93;8.17;;;;;;;;;;5073307;28;20481;-67
2022/01/12 10:36:37;;;;;;;9.33;7.23;;;;;;;;;;5073186;28;20536;-68
2022/01/12 10:39:07;;;;;;;12.77;8.53;;;;;;;;;;5072783;28;20954;-68
2022/01/12 10:41:35;;;;;;;11.50;8.33;;;;;;;;;;5073774;28;20445;-67
2022/01/12 10:44:02;;;;;;;12.13;9.17;;;;;;;;;;5073800;28;20449;-68
2022/01/12 10:46:30;;;;;;;10.40;7.93;;;;;;;;;;5073205;28;20937;-67
2022/01/12 10:48:58;;;;;;;11.63;8.90;;;;;;;;;;5073564;28;20473;-68
2022/01/12 10:51:26;;;;;;;11.63;8.43;;;;;;;;;;5072437;28;20519;-68
2022/01/12 10:53:54;;;;;;;13.70;8.90;;;;;;;;;;5073096;28;20999;-67
2022/01/12 10:56:24;;;;;;;11.13;7.93;;;;;;;;;;5072489;28;20473;-67
2022/01/12 10:58:53;;;;;;;11.87;9.17;;;;;;;;;;5073424;28;20465;-69
2022/01/12 11:01:21;;;;;;;9.73;7.70;;;;;;;;;;5072609;28;20449;-68
2022/01/12 11:03:48;;;;;;;10.73;8.40;;;;;;;;;;5073120;28;20976;-69
2022/01/12 11:06:16;;;;;;;12.77;8.53;;;;;;;;;;5075108;28;20460;-68
2022/01/12 11:08:47;;;;;;;10.60;8.33;;;;;;;;;;5079689;28;20488;-70
2022/01/12 11:11:16;;;;;;;12.57;10.20;;;;;;;;;;5077283;28;20476;-69
2022/01/12 11:13:45;;;;;;;14.73;10.67;;;;;;;;;;5072455;28;21019;-69
2022/01/12 11:16:13;;;;;;;12.97;10.07;;;;;;;;;;5072114;28;20472;-69
2022/01/12 11:18:41;;;;;;;16.83;10.60;;;;;;;;;;5072879;28;20968;-69
2022/01/12 11:21:12;;;;;;;13.43;9.63;;;;;;;;;;5072108;28;20459;-68
2022/01/12 11:23:40;;;;;;;13.40;9.53;;;;;;;;;;5073187;28;20454;-69
2022/01/12 11:26:15;;;;;;;11.87;10.60;;;;;;;;;;5058754;28;20539;-69
2022/01/12 11:28:42;;;;;;;13.87;9.80;;;;;;;;;;5072313;28;20449;-68
2022/01/12 11:31:12;;;;;;;11.00;8.70;;;;;;;;;;5072117;28;20445;-69
2022/01/12 11:33:42;;;;;;;15.67;8.97;;;;;;;;;;5072616;28;20456;-68
2022/01/12 11:36:19;;;;;;;13.20;10.30;;;;;;;;;;5071537;28;20492;-68
2022/01/12 11:38:48;;;;;;;13.40;9.87;;;;;;;;;;5072303;28;20448;-69
2022/01/12 11:41:17;;;;;;;11.20;9.30;;;;;;;;;;5072008;28;20437;-69
2022/01/12 11:43:45;;;;;;;12.00;8.70;;;;;;;;;;5072421;28;20446;-68
2022/01/12 11:46:15;;;;;;;10.70;9.10;;;;;;;;;;5071239;28;20446;-69
2022/01/12 11:48:43;;;;;;;19.50;10.50;;;;;;;;;;5071736;28;20460;-69
2022/01/12 11:51:10;;;;;;;16.80;9.70;;;;;;;;;;5071142;28;20549;-68
2022/01/12 11:53:44;;;;;;;11.80;7.90;;;;;;;;;;5071725;28;21001;-69
2022/01/12 11:56:13;;;;;;;10.83;7.77;;;;;;;;;;5071309;28;20452;-69
2022/01/12 11:58:50;;;;;;;9.70;8.63;;;;;;;;;;5072295;28;20814;-69
2022/01/12 12:01:19;;;;;;;12.07;9.30;;;;;;;;;;5071212;28;20812;-68
2022/01/12 12:03:56;;;;;;;14.03;10.27;;;;;;;;;;5072027;28;20485;-69
2022/01/12 12:06:23;;;;;;;12.20;9.33;;;;;;;;;;5070853;28;20441;-69
2022/01/12 12:09:01;;;;;;;13.40;8.73;;;;;;;;;;5071838;28;20536;-69
2022/01/12 12:11:29;;;;;;;14.47;8.70;;;;;;;;;;5071194;28;20449;-69
2022/01/12 12:14:03;;;;;;;11.57;8.93;;;;;;;;;;5071856;28;20528;-69
2022/01/12 12:16:32;;;;;;;11.93;9.30;;;;;;;;;;5071615;28;20508;-68
2022/01/12 12:18:59;;;;;;;11.00;9.57;;;;;;;;;;5066156;28;20515;-69
2022/01/12 12:21:26;;;;;;;15.57;8.97;;;;;;;;;;5071180;28;20560;-69
2022/01/12 12:23:53;;;;;;;13.23;8.70;;;;;;;;;;5070915;28;20454;-69
2022/01/12 12:26:22;;;;;;;9.77;7.97;;;;;;;;;;5070852;28;20528;-69
2022/01/12 12:28:56;;;;;;;10.57;6.67;;;;;;;;;;5071405;28;20480;-69
2022/01/12 12:31:24;;;;;;;12.17;6.40;;;;;;;;;;5070950;28;20458;-69
2022/01/12 12:34:01;;;;;;;11.57;8.27;;;;;;;;;;5071345;28;20853;-68
2022/01/12 12:36:29;;;;;;;10.23;7.50;;;;;;;;;;5070936;28;20945;-68
2022/01/12 12:39:05;;;;;;;13.83;8.67;;;;;;;;;;5071534;28;20793;-68
2022/01/12 12:41:37;;;;;;;12.30;8.20;;;;;;;;;;5071426;28;20457;-68
2022/01/12 12:44:04;;;;;;;14.47;8.23;;;;;;;;;;5057609;28;20813;-69
2022/01/12 12:46:32;;;;;;;12.07;7.90;;;;;;;;;;5070704;28;20471;-69
2022/01/12 12:48:59;;;;;;;11.60;7.83;;;;;;;;;;5071064;28;20477;-69
2022/01/12 12:51:27;;;;;;;11.53;9.47;;;;;;;;;;5070583;28;20460;-69
2022/01/12 12:53:58;;;;;;;13.83;8.50;;;;;;;;;;5071086;28;20473;-68
2022/01/12 12:56:28;;;;;;;12.20;7.90;;;;;;;;;;5070143;28;20487;-68
2022/01/12 12:58:57;;;;;;;11.17;7.20;;;;;;;;;;5071356;28;20447;-68
2022/01/12 13:01:26;;;;;;;9.67;7.97;;;;;;;;;;5070218;28;20445;-68
2022/01/12 13:03:55;;;;;;;11.80;8.50;;;;;;;;;;5071176;28;20459;-68
2022/01/12 13:06:26;;;;;;;12.07;8.03;;;;;;;;;;5070052;28;20449;-68
2022/01/12 13:08:55;;;;;;;25.50;13.20;;;;;;;;;;5070999;28;20530;-68
2022/01/12 13:11:28;;;;;;;20.10;11.87;;;;;;;;;;5070448;28;20531;-68
2022/01/12 13:13:59;;;;;;;14.10;10.00;;;;;;;;;;5071216;28;20448;-68
2022/01/12 13:16:27;;;;;;;16.10;10.20;;;;;;;;;;5070106;28;20500;-68
2022/01/12 13:19:03;;;;;;;14.00;9.33;;;;;;;;;;5071007;28;20488;-68
2022/01/12 13:21:31;;;;;;;15.20;8.43;;;;;;;;;;5071286;28;20511;-68
2022/01/12 13:24:00;;;;;;;11.73;9.77;;;;;;;;;;5070952;28;20452;-68
2022/01/12 13:26:31;;;;;;;9.77;7.90;;;;;;;;;;5070004;28;20553;-68
2022/01/12 13:29:00;;;;;;;14.47;9.83;;;;;;;;;;5070625;28;20441;-68
2022/01/12 13:31:28;;;;;;;9.90;7.77;;;;;;;;;;5069924;28;20449;-69
2022/01/12 13:33:55;;;;;;;16.10;9.57;;;;;;;;;;5070661;28;20452;-68
2022/01/12 13:36:23;;;;;;;12.47;8.80;;;;;;;;;;5071941;28;20484;-68
2022/01/12 13:38:59;;;;;;;13.17;9.27;;;;;;;;;;5074865;28;20471;-68
2022/01/12 13:41:29;;;;;;;12.70;8.77;;;;;;;;;;5074444;28;20977;-68
2022/01/12 13:43:58;;;;;;;11.17;8.30;;;;;;;;;;5074915;28;20453;-69
2022/01/12 13:46:32;;;;;;;12.93;9.27;;;;;;;;;;5073677;28;20539;-68
2022/01/12 13:51:53;;;;;;;13.43;9.37;;;;;;;;;;5076975;28;20472;-69
2022/01/12 13:54:20;;;;;;;11.53;8.83;;;;;;;;;;5081681;28;20531;-68
2022/01/12 13:56:51;;;;;;;12.40;9.30;;;;;;;;;;5080316;28;20952;-68
2022/01/12 13:59:19;;;;;;;14.07;9.13;;;;;;;;;;5074501;28;20441;-68
2022/01/12 14:01:46;;;;;;;11.90;9.37;;;;;;;;;;5074319;28;20476;-69
2022/01/12 14:04:17;;;;;;;12.50;9.20;;;;;;;;;;5073941;28;20449;-68
2022/01/12 14:06:46;;;;;;;13.83;8.23;;;;;;;;;;5073964;28;20925;-68
2022/01/12 14:09:22;;;;;;;13.50;9.00;;;;;;;;;;5073747;28;20514;-68
2022/01/12 14:11:51;;;;;;;10.60;7.73;;;;;;;;;;5074414;28;20865;-68
2022/01/12 14:14:18;;;;;;;13.57;9.13;;;;;;;;;;5073558;28;20545;-69
2022/01/12 14:16:46;;;;;;;11.37;8.47;;;;;;;;;;5073535;28;20541;-69
2022/01/12 14:19:13;;;;;;;11.77;9.23;;;;;;;;;;5073373;28;20929;-69
2022/01/12 14:21:41;;;;;;;12.80;8.60;;;;;;;;;;5074277;28;20496;-69
2022/01/12 14:24:09;;;;;;;12.10;8.80;;;;;;;;;;5073515;28;20929;-69
2022/01/12 14:26:40;;;;;;;11.13;8.20;;;;;;;;;;5073325;28;20536;-68
2022/01/12 14:29:10;;;;;;;11.80;8.60;;;;;;;;;;5073110;28;20524;-68
2022/01/12 14:31:38;;;;;;;10.17;8.63;;;;;;;;;;5074006;28;20491;-69
2022/01/12 14:34:05;;;;;;;13.40;8.87;;;;;;;;;;5073419;28;20532;-68
2022/01/12 14:36:32;;;;;;;18.17;12.30;;;;;;;;;;5073698;28;20481;-68
2022/01/12 14:38:59;;;;;;;12.07;9.00;;;;;;;;;;5073628;28;20445;-68
2022/01/12 14:41:27;;;;;;;12.93;8.43;;;;;;;;;;5073150;28;21009;-68
2022/01/12 14:43:54;;;;;;;12.10;8.77;;;;;;;;;;5073612;28;20450;-68
2022/01/12 14:46:23;;;;;;;13.33;9.20;;;;;;;;;;5072374;28;20537;-68
2022/01/12 14:48:51;;;;;;;12.03;9.20;;;;;;;;;;5072969;28;20524;-68
2022/01/12 14:51:18;;;;;;;17.03;10.53;;;;;;;;;;5072559;28;20457;-68
2022/01/12 14:53:45;;;;;;;13.27;9.27;;;;;;;;;;5073428;28;20445;-69
2022/01/12 14:56:13;;;;;;;13.30;9.00;;;;;;;;;;5072184;28;20485;-68
2022/01/12 14:58:41;;;;;;;12.90;8.90;;;;;;;;;;5073621;28;20444;-68
2022/01/12 15:01:08;;;;;;;18.40;8.70;;;;;;;;;;5072312;28;20945;-68
2022/01/12 15:03:37;;;;;;;14.20;9.10;;;;;;;;;;5073141;28;21013;-68
2022/01/12 15:06:04;;;;;;;12.37;10.03;;;;;;;;;;5072509;28;20476;-68
2022/01/12 15:08:32;;;;;;;12.27;8.63;;;;;;;;;;5073206;28;20458;-68
2022/01/12 15:10:59;;;;;;;14.70;9.20;;;;;;;;;;5073590;28;20534;-69
2022/01/12 15:13:38;;;;;;;16.37;9.60;;;;;;;;;;5072447;28;20488;-68
2022/01/12 15:16:05;;;;;;;11.97;8.50;;;;;;;;;;5071864;28;20562;-69
2022/01/12 15:18:33;;;;;;;12.33;9.13;;;;;;;;;;5073246;28;20480;-68
2022/01/12 15:21:01;;;;;;;14.40;8.70;;;;;;;;;;5073257;28;20449;-68
2022/01/12 15:23:28;;;;;;;12.00;8.80;;;;;;;;;;5072404;28;20532;-68
2022/01/12 15:25:55;;;;;;;12.47;9.70;;;;;;;;;;5072189;28;20460;-68
2022/01/12 15:28:23;;;;;;;12.90;9.33;;;;;;;;;;5072023;28;20891;-68
2022/01/12 15:30:50;;;;;;;10.70;8.90;;;;;;;;;;5072709;28;20540;-68
2022/01/12 15:33:17;;;;;;;13.33;9.07;;;;;;;;;;5072309;28;20453;-68
2022/01/12 15:35:44;;;;;;;12.07;8.40;;;;;;;;;;5071925;28;20481;-68
2022/01/12 15:38:14;;;;;;;13.67;9.90;;;;;;;;;;5071896;28;21313;-68
2022/01/12 15:40:42;;;;;;;9.20;7.40;;;;;;;;;;5072526;28;20446;-68
2022/01/12 15:43:09;;;;;;;10.00;8.20;;;;;;;;;;5071739;28;20938;-68
2022/01/12 15:45:37;;;;;;;10.43;8.73;;;;;;;;;;5071962;28;20463;-68